sensor_id;sensor_type;location;lat;lon;timestamp;P1;durP1;ratioP1;P2;durP2;ratioP2
64643;SDS011;51056;50.330;7.914;2023-08-06T00:00:09;7.97;;;2.75;;
64643;SDS011;51056;50.330;7.914;2023-08-06T00:03:12;6.82;;;2.50;;
64643;SDS011;51056;50.330;7.914;2023-08-06T00:06:15;9.48;;;2.40;;
64643;SDS011;51056;50.330;7.914;2023-08-06T00:09:18;6.13;;;2.80;;
64643;SDS011;51056;50.330;7.914;2023-08-06T00:12:22;4.93;;;2.65;;
64643;SDS011;51056;50.330;7.914;2023-08-06T00:15:25;7.93;;;2.72;;
64643;SDS011;51056;50.330;7.914;2023-08-06T00:18:28;5.72;;;2.70;;
64643;SDS011;51056;50.330;7.914;2023-08-06T00:21:32;4.47;;;2.55;;
64643;SDS011;51056;50.330;7.914;2023-08-06T00:24:35;4.45;;;2.55;;
64643;SDS011;51056;50.330;7.914;2023-08-06T00:27:39;4.68;;;2.35;;
64643;SDS011;51056;50.330;7.914;2023-08-06T00:30:42;5.90;;;2.92;;
64643;SDS011;51056;50.330;7.914;2023-08-06T00:33:46;6.15;;;2.72;;
64643;SDS011;51056;50.330;7.914;2023-08-06T00:36:49;4.63;;;2.75;;
64643;SDS011;51056;50.330;7.914;2023-08-06T00:39:52;3.80;;;2.33;;
64643;SDS011;51056;50.330;7.914;2023-08-06T00:42:55;6.28;;;2.60;;
64643;SDS011;51056;50.330;7.914;2023-08-06T00:45:59;8.68;;;2.55;;
64643;SDS011;51056;50.330;7.914;2023-08-06T00:49:03;5.70;;;2.30;;
64643;SDS011;51056;50.330;7.914;2023-08-06T00:52:08;6.45;;;2.75;;
64643;SDS011;51056;50.330;7.914;2023-08-06T00:55:13;5.00;;;2.30;;
64643;SDS011;51056;50.330;7.914;2023-08-06T00:58:17;4.10;;;2.47;;
64643;SDS011;51056;50.330;7.914;2023-08-06T01:01:21;7.32;;;2.60;;
64643;SDS011;51056;50.330;7.914;2023-08-06T01:04:25;6.07;;;2.50;;
64643;SDS011;51056;50.330;7.914;2023-08-06T01:11:37;5.80;;;2.60;;
64643;SDS011;51056;50.330;7.914;2023-08-06T01:18:08;4.97;;;2.30;;
64643;SDS011;51056;50.330;7.914;2023-08-06T01:21:13;5.30;;;1.75;;
64643;SDS011;51056;50.330;7.914;2023-08-06T01:24:16;6.57;;;2.15;;
64643;SDS011;51056;50.330;7.914;2023-08-06T01:27:28;4.80;;;2.10;;
64643;SDS011;51056;50.330;7.914;2023-08-06T01:30:41;9.27;;;3.03;;
64643;SDS011;51056;50.330;7.914;2023-08-06T01:33:45;7.40;;;2.35;;
64643;SDS011;51056;50.330;7.914;2023-08-06T01:36:51;7.03;;;2.03;;
64643;SDS011;51056;50.330;7.914;2023-08-06T01:39:55;4.25;;;2.35;;
64643;SDS011;51056;50.330;7.914;2023-08-06T01:42:59;6.78;;;2.10;;
64643;SDS011;51056;50.330;7.914;2023-08-06T01:46:02;7.10;;;2.65;;
64643;SDS011;51056;50.330;7.914;2023-08-06T01:49:06;8.18;;;2.67;;
64643;SDS011;51056;50.330;7.914;2023-08-06T01:52:09;5.32;;;2.40;;
64643;SDS011;51056;50.330;7.914;2023-08-06T01:55:12;3.53;;;1.98;;
64643;SDS011;51056;50.330;7.914;2023-08-06T01:58:16;6.35;;;2.15;;
64643;SDS011;51056;50.330;7.914;2023-08-06T02:04:22;7.57;;;2.20;;
64643;SDS011;51056;50.330;7.914;2023-08-06T02:07:25;4.47;;;2.38;;
64643;SDS011;51056;50.330;7.914;2023-08-06T02:10:29;4.53;;;2.13;;
64643;SDS011;51056;50.330;7.914;2023-08-06T02:13:32;3.20;;;2.30;;
64643;SDS011;51056;50.330;7.914;2023-08-06T02:16:35;7.00;;;2.05;;
64643;SDS011;51056;50.330;7.914;2023-08-06T02:19:39;4.57;;;2.00;;
64643;SDS011;51056;50.330;7.914;2023-08-06T02:22:42;5.75;;;2.20;;
64643;SDS011;51056;50.330;7.914;2023-08-06T02:25:46;6.03;;;2.80;;
64643;SDS011;51056;50.330;7.914;2023-08-06T02:28:49;6.05;;;2.13;;
64643;SDS011;51056;50.330;7.914;2023-08-06T02:31:52;6.68;;;2.42;;
64643;SDS011;51056;50.330;7.914;2023-08-06T02:34:56;5.32;;;2.10;;
64643;SDS011;51056;50.330;7.914;2023-08-06T02:37:59;7.57;;;2.80;;
64643;SDS011;51056;50.330;7.914;2023-08-06T02:41:02;3.78;;;2.10;;
64643;SDS011;51056;50.330;7.914;2023-08-06T02:44:06;7.82;;;2.55;;
64643;SDS011;51056;50.330;7.914;2023-08-06T02:47:09;5.07;;;2.28;;
64643;SDS011;51056;50.330;7.914;2023-08-06T02:50:12;4.13;;;2.00;;
64643;SDS011;51056;50.330;7.914;2023-08-06T02:53:16;5.93;;;2.13;;
64643;SDS011;51056;50.330;7.914;2023-08-06T02:56:20;4.13;;;2.13;;
64643;SDS011;51056;50.330;7.914;2023-08-06T02:59:35;5.30;;;2.03;;
64643;SDS011;51056;50.330;7.914;2023-08-06T03:02:46;6.20;;;2.00;;
64643;SDS011;51056;50.330;7.914;2023-08-06T03:06:11;6.07;;;1.98;;
64643;SDS011;51056;50.330;7.914;2023-08-06T03:09:21;6.65;;;2.20;;
64643;SDS011;51056;50.330;7.914;2023-08-06T03:12:25;5.63;;;2.20;;
64643;SDS011;51056;50.330;7.914;2023-08-06T03:15:29;3.65;;;2.03;;
64643;SDS011;51056;50.330;7.914;2023-08-06T03:18:32;5.72;;;1.63;;
64643;SDS011;51056;50.330;7.914;2023-08-06T03:21:39;5.38;;;2.15;;
64643;SDS011;51056;50.330;7.914;2023-08-06T03:24:42;4.72;;;2.25;;
64643;SDS011;51056;50.330;7.914;2023-08-06T03:27:47;8.35;;;2.20;;
64643;SDS011;51056;50.330;7.914;2023-08-06T03:30:59;9.23;;;2.00;;
64643;SDS011;51056;50.330;7.914;2023-08-06T03:34:38;7.40;;;2.33;;
64643;SDS011;51056;50.330;7.914;2023-08-06T03:37:41;4.95;;;2.28;;
64643;SDS011;51056;50.330;7.914;2023-08-06T03:40:46;4.03;;;2.10;;
64643;SDS011;51056;50.330;7.914;2023-08-06T03:43:50;6.88;;;1.63;;
64643;SDS011;51056;50.330;7.914;2023-08-06T03:46:59;4.97;;;2.05;;
64643;SDS011;51056;50.330;7.914;2023-08-06T03:50:02;11.90;;;2.13;;
64643;SDS011;51056;50.330;7.914;2023-08-06T03:53:07;4.95;;;1.80;;
64643;SDS011;51056;50.330;7.914;2023-08-06T03:56:10;5.00;;;2.40;;
64643;SDS011;51056;50.330;7.914;2023-08-06T03:59:13;4.18;;;2.15;;
64643;SDS011;51056;50.330;7.914;2023-08-06T04:02:17;6.88;;;2.25;;
64643;SDS011;51056;50.330;7.914;2023-08-06T04:05:21;5.13;;;2.17;;
64643;SDS011;51056;50.330;7.914;2023-08-06T04:08:27;7.55;;;2.15;;
64643;SDS011;51056;50.330;7.914;2023-08-06T04:11:30;6.03;;;2.83;;
64643;SDS011;51056;50.330;7.914;2023-08-06T04:14:33;5.75;;;2.35;;
64643;SDS011;51056;50.330;7.914;2023-08-06T04:17:36;5.70;;;2.00;;
64643;SDS011;51056;50.330;7.914;2023-08-06T04:20:44;6.90;;;2.00;;
64643;SDS011;51056;50.330;7.914;2023-08-06T04:23:48;4.40;;;1.92;;
64643;SDS011;51056;50.330;7.914;2023-08-06T04:26:52;5.22;;;1.83;;
64643;SDS011;51056;50.330;7.914;2023-08-06T04:29:55;3.72;;;2.17;;
64643;SDS011;51056;50.330;7.914;2023-08-06T04:32:59;4.47;;;2.22;;
64643;SDS011;51056;50.330;7.914;2023-08-06T04:36:03;6.88;;;2.33;;
64643;SDS011;51056;50.330;7.914;2023-08-06T04:39:06;3.25;;;1.90;;
64643;SDS011;51056;50.330;7.914;2023-08-06T04:42:09;5.32;;;2.10;;
64643;SDS011;51056;50.330;7.914;2023-08-06T04:45:13;5.65;;;1.70;;
64643;SDS011;51056;50.330;7.914;2023-08-06T04:48:16;7.68;;;1.80;;
64643;SDS011;51056;50.330;7.914;2023-08-06T04:51:20;5.35;;;2.08;;
64643;SDS011;51056;50.330;7.914;2023-08-06T04:54:23;5.18;;;2.30;;
64643;SDS011;51056;50.330;7.914;2023-08-06T04:57:26;4.30;;;1.95;;
64643;SDS011;51056;50.330;7.914;2023-08-06T05:00:30;8.30;;;2.25;;
64643;SDS011;51056;50.330;7.914;2023-08-06T05:03:33;4.13;;;2.20;;
64643;SDS011;51056;50.330;7.914;2023-08-06T05:06:36;7.75;;;2.28;;
64643;SDS011;51056;50.330;7.914;2023-08-06T05:09:42;5.25;;;1.95;;
64643;SDS011;51056;50.330;7.914;2023-08-06T05:15:48;4.72;;;2.15;;
64643;SDS011;51056;50.330;7.914;2023-08-06T05:18:52;4.32;;;1.90;;
64643;SDS011;51056;50.330;7.914;2023-08-06T05:21:55;5.65;;;1.77;;
64643;SDS011;51056;50.330;7.914;2023-08-06T05:24:58;6.22;;;2.08;;
64643;SDS011;51056;50.330;7.914;2023-08-06T05:28:02;5.47;;;1.75;;
64643;SDS011;51056;50.330;7.914;2023-08-06T05:31:06;4.75;;;2.03;;
64643;SDS011;51056;50.330;7.914;2023-08-06T05:34:10;5.28;;;1.70;;
64643;SDS011;51056;50.330;7.914;2023-08-06T05:37:13;5.75;;;2.17;;
64643;SDS011;51056;50.330;7.914;2023-08-06T05:40:21;4.72;;;1.55;;
64643;SDS011;51056;50.330;7.914;2023-08-06T05:43:25;4.25;;;2.28;;
64643;SDS011;51056;50.330;7.914;2023-08-06T05:46:28;3.25;;;1.88;;
64643;SDS011;51056;50.330;7.914;2023-08-06T05:49:32;4.25;;;1.83;;
64643;SDS011;51056;50.330;7.914;2023-08-06T05:55:39;9.50;;;1.65;;
64643;SDS011;51056;50.330;7.914;2023-08-06T05:58:42;5.45;;;2.05;;
64643;SDS011;51056;50.330;7.914;2023-08-06T06:01:46;5.13;;;1.50;;
64643;SDS011;51056;50.330;7.914;2023-08-06T06:04:49;3.17;;;1.50;;
64643;SDS011;51056;50.330;7.914;2023-08-06T06:07:52;8.07;;;3.67;;
64643;SDS011;51056;50.330;7.914;2023-08-06T06:28:30;4.50;;;0.98;;
64643;SDS011;51056;50.330;7.914;2023-08-06T06:31:33;2.60;;;0.90;;
64643;SDS011;51056;50.330;7.914;2023-08-06T06:34:37;2.50;;;1.13;;
64643;SDS011;51056;50.330;7.914;2023-08-06T06:37:40;2.90;;;0.82;;
64643;SDS011;51056;50.330;7.914;2023-08-06T06:40:44;2.25;;;0.80;;
64643;SDS011;51056;50.330;7.914;2023-08-06T06:43:47;2.63;;;0.80;;
64643;SDS011;51056;50.330;7.914;2023-08-06T06:46:50;2.38;;;0.90;;
64643;SDS011;51056;50.330;7.914;2023-08-06T06:49:53;1.55;;;0.60;;
64643;SDS011;51056;50.330;7.914;2023-08-06T06:52:57;2.38;;;0.80;;
64643;SDS011;51056;50.330;7.914;2023-08-06T06:56:04;3.08;;;0.90;;
64643;SDS011;51056;50.330;7.914;2023-08-06T06:59:07;1.30;;;0.52;;
64643;SDS011;51056;50.330;7.914;2023-08-06T07:02:12;1.67;;;0.60;;
64643;SDS011;51056;50.330;7.914;2023-08-06T07:05:16;3.80;;;0.55;;
64643;SDS011;51056;50.330;7.914;2023-08-06T07:08:19;2.38;;;0.68;;
64643;SDS011;51056;50.330;7.914;2023-08-06T07:11:22;2.22;;;0.93;;
64643;SDS011;51056;50.330;7.914;2023-08-06T07:14:26;2.90;;;0.52;;
64643;SDS011;51056;50.330;7.914;2023-08-06T07:17:29;3.38;;;0.57;;
64643;SDS011;51056;50.330;7.914;2023-08-06T07:20:33;4.03;;;0.68;;
64643;SDS011;51056;50.330;7.914;2023-08-06T07:23:39;1.52;;;0.50;;
64643;SDS011;51056;50.330;7.914;2023-08-06T07:26:42;3.05;;;0.57;;
64643;SDS011;51056;50.330;7.914;2023-08-06T07:29:46;1.23;;;0.45;;
64643;SDS011;51056;50.330;7.914;2023-08-06T07:32:49;1.50;;;0.47;;
64643;SDS011;51056;50.330;7.914;2023-08-06T07:35:52;1.58;;;0.45;;
64643;SDS011;51056;50.330;7.914;2023-08-06T07:38:56;2.40;;;0.57;;
64643;SDS011;51056;50.330;7.914;2023-08-06T07:41:59;1.95;;;0.55;;
64643;SDS011;51056;50.330;7.914;2023-08-06T07:45:05;2.88;;;0.60;;
64643;SDS011;51056;50.330;7.914;2023-08-06T07:48:10;1.58;;;0.40;;
64643;SDS011;51056;50.330;7.914;2023-08-06T07:51:13;3.25;;;0.60;;
64643;SDS011;51056;50.330;7.914;2023-08-06T07:54:17;1.70;;;0.40;;
64643;SDS011;51056;50.330;7.914;2023-08-06T07:57:20;1.73;;;0.50;;
64643;SDS011;51056;50.330;7.914;2023-08-06T08:00:24;1.70;;;0.30;;
64643;SDS011;51056;50.330;7.914;2023-08-06T08:03:27;1.50;;;0.30;;
64643;SDS011;51056;50.330;7.914;2023-08-06T08:06:30;1.83;;;0.40;;
64643;SDS011;51056;50.330;7.914;2023-08-06T08:09:34;0.93;;;0.30;;
64643;SDS011;51056;50.330;7.914;2023-08-06T08:12:37;1.65;;;0.40;;
64643;SDS011;51056;50.330;7.914;2023-08-06T08:15:40;3.35;;;0.50;;
64643;SDS011;51056;50.330;7.914;2023-08-06T08:18:44;1.80;;;0.43;;
64643;SDS011;51056;50.330;7.914;2023-08-06T08:21:47;1.30;;;0.40;;
64643;SDS011;51056;50.330;7.914;2023-08-06T08:28:21;1.17;;;0.30;;
64643;SDS011;51056;50.330;7.914;2023-08-06T08:31:24;1.60;;;0.50;;
64643;SDS011;51056;50.330;7.914;2023-08-06T08:39:37;1.92;;;0.75;;
64643;SDS011;51056;50.330;7.914;2023-08-06T08:42:40;1.75;;;0.43;;
64643;SDS011;51056;50.330;7.914;2023-08-06T08:45:45;1.35;;;0.40;;
64643;SDS011;51056;50.330;7.914;2023-08-06T08:48:53;1.10;;;0.38;;
64643;SDS011;51056;50.330;7.914;2023-08-06T08:52:02;0.90;;;0.20;;
64643;SDS011;51056;50.330;7.914;2023-08-06T08:55:09;0.95;;;0.30;;
64643;SDS011;51056;50.330;7.914;2023-08-06T08:58:13;1.90;;;0.68;;
64643;SDS011;51056;50.330;7.914;2023-08-06T09:01:18;2.45;;;0.50;;
64643;SDS011;51056;50.330;7.914;2023-08-06T09:04:23;4.47;;;1.17;;
64643;SDS011;51056;50.330;7.914;2023-08-06T09:07:27;1.83;;;0.32;;
64643;SDS011;51056;50.330;7.914;2023-08-06T09:10:31;0.93;;;0.25;;
64643;SDS011;51056;50.330;7.914;2023-08-06T09:13:36;1.50;;;0.32;;
64643;SDS011;51056;50.330;7.914;2023-08-06T09:16:40;2.33;;;0.32;;
64643;SDS011;51056;50.330;7.914;2023-08-06T09:19:46;1.17;;;0.30;;
64643;SDS011;51056;50.330;7.914;2023-08-06T09:22:52;1.20;;;0.20;;
64643;SDS011;51056;50.330;7.914;2023-08-06T09:25:56;1.45;;;0.30;;
64643;SDS011;51056;50.330;7.914;2023-08-06T09:29:00;1.42;;;0.28;;
64643;SDS011;51056;50.330;7.914;2023-08-06T09:32:04;0.38;;;0.10;;
64643;SDS011;51056;50.330;7.914;2023-08-06T09:35:16;0.90;;;0.20;;
64643;SDS011;51056;50.330;7.914;2023-08-06T09:38:20;1.88;;;0.20;;
64643;SDS011;51056;50.330;7.914;2023-08-06T09:41:26;1.58;;;0.40;;
64643;SDS011;51056;50.330;7.914;2023-08-06T09:44:32;2.50;;;0.30;;
64643;SDS011;51056;50.330;7.914;2023-08-06T09:47:36;1.52;;;0.30;;
64643;SDS011;51056;50.330;7.914;2023-08-06T09:50:39;1.13;;;0.30;;
64643;SDS011;51056;50.330;7.914;2023-08-06T09:53:47;1.65;;;0.40;;
64643;SDS011;51056;50.330;7.914;2023-08-06T09:56:54;2.10;;;0.50;;
64643;SDS011;51056;50.330;7.914;2023-08-06T10:00:01;1.45;;;0.40;;
64643;SDS011;51056;50.330;7.914;2023-08-06T10:03:05;2.25;;;0.40;;
64643;SDS011;51056;50.330;7.914;2023-08-06T10:06:09;1.30;;;0.50;;
64643;SDS011;51056;50.330;7.914;2023-08-06T10:09:14;1.73;;;0.40;;
64643;SDS011;51056;50.330;7.914;2023-08-06T10:12:18;1.40;;;0.43;;
64643;SDS011;51056;50.330;7.914;2023-08-06T10:15:26;1.48;;;0.30;;
64643;SDS011;51056;50.330;7.914;2023-08-06T10:18:31;1.27;;;0.40;;
64643;SDS011;51056;50.330;7.914;2023-08-06T10:21:37;1.52;;;0.50;;
64643;SDS011;51056;50.330;7.914;2023-08-06T10:24:48;1.13;;;0.30;;
64643;SDS011;51056;50.330;7.914;2023-08-06T10:30:57;1.30;;;0.30;;
64643;SDS011;51056;50.330;7.914;2023-08-06T10:37:49;0.85;;;0.30;;
64643;SDS011;51056;50.330;7.914;2023-08-06T10:44:05;1.60;;;0.60;;
64643;SDS011;51056;50.330;7.914;2023-08-06T10:47:28;1.63;;;0.25;;
64643;SDS011;51056;50.330;7.914;2023-08-06T10:50:32;1.45;;;0.30;;
64643;SDS011;51056;50.330;7.914;2023-08-06T10:53:35;1.08;;;0.20;;
64643;SDS011;51056;50.330;7.914;2023-08-06T10:56:40;1.13;;;0.20;;
64643;SDS011;51056;50.330;7.914;2023-08-06T10:59:45;0.38;;;0.20;;
64643;SDS011;51056;50.330;7.914;2023-08-06T11:02:48;1.92;;;0.30;;
64643;SDS011;51056;50.330;7.914;2023-08-06T11:05:52;0.73;;;0.10;;
64643;SDS011;51056;50.330;7.914;2023-08-06T11:08:55;0.90;;;0.20;;
64643;SDS011;51056;50.330;7.914;2023-08-06T11:11:59;0.80;;;0.30;;
64643;SDS011;51056;50.330;7.914;2023-08-06T11:15:03;0.38;;;0.17;;
64643;SDS011;51056;50.330;7.914;2023-08-06T11:18:07;1.73;;;0.30;;
64643;SDS011;51056;50.330;7.914;2023-08-06T11:21:11;1.13;;;0.50;;
64643;SDS011;51056;50.330;7.914;2023-08-06T11:24:15;1.08;;;0.40;;
64643;SDS011;51056;50.330;7.914;2023-08-06T11:27:18;1.33;;;0.60;;
64643;SDS011;51056;50.330;7.914;2023-08-06T11:30:23;0.82;;;0.30;;
64643;SDS011;51056;50.330;7.914;2023-08-06T11:33:26;1.98;;;0.50;;
64643;SDS011;51056;50.330;7.914;2023-08-06T11:36:31;2.55;;;0.30;;
64643;SDS011;51056;50.330;7.914;2023-08-06T11:39:36;1.80;;;0.45;;
64643;SDS011;51056;50.330;7.914;2023-08-06T11:42:40;3.08;;;0.75;;
64643;SDS011;51056;50.330;7.914;2023-08-06T11:45:45;1.40;;;0.45;;
64643;SDS011;51056;50.330;7.914;2023-08-06T11:52:52;2.25;;;0.70;;
64643;SDS011;51056;50.330;7.914;2023-08-06T11:56:03;0.88;;;0.30;;
64643;SDS011;51056;50.330;7.914;2023-08-06T11:59:06;1.45;;;0.50;;
64643;SDS011;51056;50.330;7.914;2023-08-06T12:02:11;2.50;;;0.70;;
64643;SDS011;51056;50.330;7.914;2023-08-06T12:08:18;1.88;;;0.60;;
64643;SDS011;51056;50.330;7.914;2023-08-06T12:11:23;2.80;;;0.50;;
64643;SDS011;51056;50.330;7.914;2023-08-06T12:14:26;2.30;;;0.80;;
64643;SDS011;51056;50.330;7.914;2023-08-06T12:17:30;2.17;;;0.60;;
64643;SDS011;51056;50.330;7.914;2023-08-06T12:20:34;2.13;;;0.55;;
64643;SDS011;51056;50.330;7.914;2023-08-06T12:23:38;2.30;;;0.70;;
64643;SDS011;51056;50.330;7.914;2023-08-06T12:26:43;1.92;;;0.60;;
64643;SDS011;51056;50.330;7.914;2023-08-06T12:29:47;2.58;;;0.55;;
64643;SDS011;51056;50.330;7.914;2023-08-06T12:32:51;2.83;;;0.95;;
64643;SDS011;51056;50.330;7.914;2023-08-06T12:35:55;1.48;;;0.40;;
64643;SDS011;51056;50.330;7.914;2023-08-06T12:38:58;2.28;;;0.50;;
64643;SDS011;51056;50.330;7.914;2023-08-06T12:42:05;0.98;;;0.30;;
64643;SDS011;51056;50.330;7.914;2023-08-06T12:45:10;1.83;;;0.50;;
64643;SDS011;51056;50.330;7.914;2023-08-06T12:48:14;2.33;;;0.40;;
64643;SDS011;51056;50.330;7.914;2023-08-06T12:51:19;2.35;;;0.50;;
64643;SDS011;51056;50.330;7.914;2023-08-06T12:54:25;2.42;;;0.57;;
64643;SDS011;51056;50.330;7.914;2023-08-06T12:57:32;3.38;;;1.85;;
64643;SDS011;51056;50.330;7.914;2023-08-06T13:00:37;3.50;;;1.38;;
64643;SDS011;51056;50.330;7.914;2023-08-06T13:03:41;1.10;;;0.50;;
64643;SDS011;51056;50.330;7.914;2023-08-06T13:06:44;2.97;;;0.63;;
64643;SDS011;51056;50.330;7.914;2023-08-06T13:09:51;2.70;;;0.40;;
64643;SDS011;51056;50.330;7.914;2023-08-06T13:12:54;1.60;;;0.35;;
64643;SDS011;51056;50.330;7.914;2023-08-06T13:15:58;2.88;;;0.30;;
64643;SDS011;51056;50.330;7.914;2023-08-06T13:19:01;2.03;;;0.95;;
64643;SDS011;51056;50.330;7.914;2023-08-06T13:22:05;1.73;;;0.60;;
64643;SDS011;51056;50.330;7.914;2023-08-06T13:25:12;2.20;;;0.45;;
64643;SDS011;51056;50.330;7.914;2023-08-06T13:28:17;2.03;;;0.40;;
64643;SDS011;51056;50.330;7.914;2023-08-06T13:31:22;1.65;;;0.40;;
64643;SDS011;51056;50.330;7.914;2023-08-06T13:34:25;2.47;;;0.50;;
64643;SDS011;51056;50.330;7.914;2023-08-06T13:37:30;2.30;;;0.40;;
64643;SDS011;51056;50.330;7.914;2023-08-06T13:40:35;2.67;;;0.30;;
64643;SDS011;51056;50.330;7.914;2023-08-06T13:43:38;0.90;;;0.32;;
64643;SDS011;51056;50.330;7.914;2023-08-06T13:46:42;1.15;;;0.30;;
64643;SDS011;51056;50.330;7.914;2023-08-06T13:49:46;2.35;;;0.65;;
64643;SDS011;51056;50.330;7.914;2023-08-06T13:52:50;0.98;;;0.40;;
64643;SDS011;51056;50.330;7.914;2023-08-06T13:56:04;1.55;;;0.45;;
64643;SDS011;51056;50.330;7.914;2023-08-06T13:59:13;1.90;;;0.38;;
64643;SDS011;51056;50.330;7.914;2023-08-06T14:02:18;5.68;;;0.40;;
64643;SDS011;51056;50.330;7.914;2023-08-06T14:05:21;1.65;;;0.28;;
64643;SDS011;51056;50.330;7.914;2023-08-06T14:08:25;1.75;;;0.47;;
64643;SDS011;51056;50.330;7.914;2023-08-06T14:11:29;1.58;;;0.38;;
64643;SDS011;51056;50.330;7.914;2023-08-06T14:14:33;3.08;;;0.40;;
64643;SDS011;51056;50.330;7.914;2023-08-06T14:17:39;2.08;;;0.43;;
64643;SDS011;51056;50.330;7.914;2023-08-06T14:20:43;1.77;;;0.43;;
64643;SDS011;51056;50.330;7.914;2023-08-06T14:23:47;1.20;;;0.40;;
64643;SDS011;51056;50.330;7.914;2023-08-06T14:26:51;1.73;;;0.50;;
64643;SDS011;51056;50.330;7.914;2023-08-06T14:36:03;1.33;;;0.35;;
64643;SDS011;51056;50.330;7.914;2023-08-06T14:39:07;1.42;;;0.40;;
64643;SDS011;51056;50.330;7.914;2023-08-06T14:42:10;1.45;;;0.73;;
64643;SDS011;51056;50.330;7.914;2023-08-06T14:45:13;1.05;;;0.30;;
64643;SDS011;51056;50.330;7.914;2023-08-06T14:48:17;1.90;;;0.75;;
64643;SDS011;51056;50.330;7.914;2023-08-06T14:51:20;1.65;;;0.35;;
64643;SDS011;51056;50.330;7.914;2023-08-06T14:54:25;1.58;;;0.40;;
64643;SDS011;51056;50.330;7.914;2023-08-06T14:57:30;4.53;;;1.77;;
64643;SDS011;51056;50.330;7.914;2023-08-06T15:00:34;16.05;;;12.77;;
64643;SDS011;51056;50.330;7.914;2023-08-06T15:03:39;5.70;;;3.90;;
64643;SDS011;51056;50.330;7.914;2023-08-06T15:06:42;1.10;;;0.40;;
64643;SDS011;51056;50.330;7.914;2023-08-06T15:09:45;2.28;;;0.38;;
64643;SDS011;51056;50.330;7.914;2023-08-06T15:12:49;3.15;;;0.60;;
64643;SDS011;51056;50.330;7.914;2023-08-06T15:15:52;1.38;;;0.47;;
64643;SDS011;51056;50.330;7.914;2023-08-06T15:18:56;3.03;;;0.60;;
64643;SDS011;51056;50.330;7.914;2023-08-06T15:21:59;3.80;;;0.57;;
64643;SDS011;51056;50.330;7.914;2023-08-06T15:25:03;2.80;;;0.73;;
64643;SDS011;51056;50.330;7.914;2023-08-06T15:28:07;2.92;;;0.57;;
64643;SDS011;51056;50.330;7.914;2023-08-06T15:31:10;1.85;;;0.40;;
64643;SDS011;51056;50.330;7.914;2023-08-06T15:34:14;2.33;;;0.50;;
64643;SDS011;51056;50.330;7.914;2023-08-06T15:37:17;3.10;;;0.50;;
64643;SDS011;51056;50.330;7.914;2023-08-06T15:40:21;1.48;;;0.50;;
64643;SDS011;51056;50.330;7.914;2023-08-06T15:43:26;1.92;;;0.40;;
64643;SDS011;51056;50.330;7.914;2023-08-06T15:46:29;2.63;;;1.10;;
64643;SDS011;51056;50.330;7.914;2023-08-06T15:49:33;2.25;;;0.50;;
64643;SDS011;51056;50.330;7.914;2023-08-06T15:52:36;2.15;;;0.32;;
64643;SDS011;51056;50.330;7.914;2023-08-06T15:55:40;1.23;;;0.32;;
64643;SDS011;51056;50.330;7.914;2023-08-06T15:58:43;2.53;;;0.73;;
64643;SDS011;51056;50.330;7.914;2023-08-06T16:01:46;3.35;;;0.90;;
64643;SDS011;51056;50.330;7.914;2023-08-06T16:04:50;3.25;;;0.50;;
64643;SDS011;51056;50.330;7.914;2023-08-06T16:07:53;3.42;;;0.55;;
64643;SDS011;51056;50.330;7.914;2023-08-06T16:10:58;2.58;;;0.95;;
64643;SDS011;51056;50.330;7.914;2023-08-06T16:14:01;1.67;;;0.40;;
64643;SDS011;51056;50.330;7.914;2023-08-06T16:17:05;5.32;;;1.30;;
64643;SDS011;51056;50.330;7.914;2023-08-06T16:20:08;3.60;;;2.33;;
64643;SDS011;51056;50.330;7.914;2023-08-06T16:23:23;3.60;;;1.90;;
64643;SDS011;51056;50.330;7.914;2023-08-06T16:26:27;1.92;;;0.52;;
64643;SDS011;51056;50.330;7.914;2023-08-06T16:29:30;3.00;;;1.17;;
64643;SDS011;51056;50.330;7.914;2023-08-06T16:32:34;2.97;;;1.45;;
64643;SDS011;51056;50.330;7.914;2023-08-06T16:35:38;2.85;;;1.42;;
64643;SDS011;51056;50.330;7.914;2023-08-06T16:38:44;3.40;;;1.48;;
64643;SDS011;51056;50.330;7.914;2023-08-06T16:41:48;2.58;;;0.88;;
64643;SDS011;51056;50.330;7.914;2023-08-06T16:45:19;1.33;;;0.40;;
64643;SDS011;51056;50.330;7.914;2023-08-06T16:48:26;3.25;;;0.68;;
64643;SDS011;51056;50.330;7.914;2023-08-06T16:51:31;2.72;;;0.70;;
64643;SDS011;51056;50.330;7.914;2023-08-06T16:54:34;5.30;;;1.63;;
64643;SDS011;51056;50.330;7.914;2023-08-06T16:57:38;4.50;;;1.48;;
64643;SDS011;51056;50.330;7.914;2023-08-06T17:00:44;3.63;;;1.25;;
64643;SDS011;51056;50.330;7.914;2023-08-06T17:03:50;1.73;;;0.50;;
64643;SDS011;51056;50.330;7.914;2023-08-06T17:06:59;4.05;;;0.13;;
64643;SDS011;51056;50.330;7.914;2023-08-06T17:10:05;0.57;;;0.20;;
64643;SDS011;51056;50.330;7.914;2023-08-06T17:13:09;2.30;;;0.28;;
64643;SDS011;51056;50.330;7.914;2023-08-06T17:16:17;0.63;;;0.25;;
64643;SDS011;51056;50.330;7.914;2023-08-06T17:19:21;2.80;;;1.48;;
64643;SDS011;51056;50.330;7.914;2023-08-06T17:22:25;1.05;;;0.30;;
64643;SDS011;51056;50.330;7.914;2023-08-06T17:25:29;2.00;;;0.70;;
64643;SDS011;51056;50.330;7.914;2023-08-06T17:28:33;1.30;;;0.50;;
64643;SDS011;51056;50.330;7.914;2023-08-06T17:31:36;1.63;;;0.28;;
64643;SDS011;51056;50.330;7.914;2023-08-06T17:34:40;1.13;;;0.28;;
64643;SDS011;51056;50.330;7.914;2023-08-06T17:37:44;0.80;;;0.20;;
64643;SDS011;51056;50.330;7.914;2023-08-06T17:40:53;0.85;;;0.20;;
64643;SDS011;51056;50.330;7.914;2023-08-06T17:43:58;1.23;;;0.38;;
64643;SDS011;51056;50.330;7.914;2023-08-06T17:47:02;1.05;;;0.20;;
64643;SDS011;51056;50.330;7.914;2023-08-06T17:50:09;2.45;;;0.50;;
64643;SDS011;51056;50.330;7.914;2023-08-06T17:53:14;2.05;;;0.70;;
64643;SDS011;51056;50.330;7.914;2023-08-06T17:56:19;1.40;;;0.40;;
64643;SDS011;51056;50.330;7.914;2023-08-06T17:59:23;2.05;;;0.20;;
64643;SDS011;51056;50.330;7.914;2023-08-06T18:02:31;1.35;;;0.40;;
64643;SDS011;51056;50.330;7.914;2023-08-06T18:05:39;0.98;;;0.20;;
64643;SDS011;51056;50.330;7.914;2023-08-06T18:08:43;1.75;;;0.30;;
64643;SDS011;51056;50.330;7.914;2023-08-06T18:11:48;2.40;;;0.40;;
64643;SDS011;51056;50.330;7.914;2023-08-06T18:14:53;9.75;;;1.48;;
64643;SDS011;51056;50.330;7.914;2023-08-06T18:18:00;1.23;;;0.30;;
64643;SDS011;51056;50.330;7.914;2023-08-06T18:21:04;2.90;;;0.40;;
64643;SDS011;51056;50.330;7.914;2023-08-06T18:24:09;5.32;;;0.40;;
64643;SDS011;51056;50.330;7.914;2023-08-06T18:27:15;1.52;;;0.50;;
64643;SDS011;51056;50.330;7.914;2023-08-06T18:30:24;3.30;;;0.50;;
64643;SDS011;51056;50.330;7.914;2023-08-06T18:33:38;0.65;;;0.20;;
64643;SDS011;51056;50.330;7.914;2023-08-06T18:36:43;3.30;;;0.40;;
64643;SDS011;51056;50.330;7.914;2023-08-06T18:39:56;3.65;;;0.50;;
64643;SDS011;51056;50.330;7.914;2023-08-06T18:43:05;3.58;;;0.60;;
64643;SDS011;51056;50.330;7.914;2023-08-06T18:46:08;1.17;;;0.30;;
64643;SDS011;51056;50.330;7.914;2023-08-06T18:49:11;3.58;;;0.85;;
64643;SDS011;51056;50.330;7.914;2023-08-06T18:52:15;1.27;;;0.40;;
64643;SDS011;51056;50.330;7.914;2023-08-06T18:55:18;4.45;;;0.55;;
64643;SDS011;51056;50.330;7.914;2023-08-06T19:02:10;1.20;;;0.32;;
64643;SDS011;51056;50.330;7.914;2023-08-06T19:05:15;3.25;;;0.80;;
64643;SDS011;51056;50.330;7.914;2023-08-06T19:08:18;2.97;;;0.98;;
64643;SDS011;51056;50.330;7.914;2023-08-06T19:11:22;2.33;;;1.27;;
64643;SDS011;51056;50.330;7.914;2023-08-06T19:14:25;2.90;;;1.17;;
64643;SDS011;51056;50.330;7.914;2023-08-06T19:17:29;2.00;;;0.50;;
64643;SDS011;51056;50.330;7.914;2023-08-06T19:20:33;1.08;;;0.35;;
64643;SDS011;51056;50.330;7.914;2023-08-06T19:23:48;2.35;;;0.45;;
64643;SDS011;51056;50.330;7.914;2023-08-06T19:26:51;1.45;;;0.55;;
64643;SDS011;51056;50.330;7.914;2023-08-06T19:29:56;2.53;;;0.30;;
64643;SDS011;51056;50.330;7.914;2023-08-06T19:32:59;2.10;;;0.77;;
64643;SDS011;51056;50.330;7.914;2023-08-06T19:36:03;0.73;;;0.10;;
64643;SDS011;51056;50.330;7.914;2023-08-06T19:39:09;1.98;;;0.90;;
64643;SDS011;51056;50.330;7.914;2023-08-06T19:42:12;1.95;;;0.20;;